createdAt,value
2023-01-20T00:01:26.963Z,85.89
2023-01-20T00:03:55.706Z,86.08
2023-01-20T00:06:24.102Z,86.17
2023-01-20T00:08:51.921Z,85.47
2023-01-20T00:11:19.396Z,86.01
2023-01-20T00:13:46.238Z,86.04
2023-01-20T00:16:13.696Z,85.92
2023-01-20T00:18:41.116Z,85.84
2023-01-20T00:21:11.032Z,85.43
2023-01-20T00:23:38.710Z,85.60
2023-01-20T00:26:10.235Z,86.16
2023-01-20T00:28:36.935Z,85.44
2023-01-20T00:31:30.741Z,85.54
2023-01-20T00:34:01.036Z,86.22
2023-01-20T00:36:31.380Z,87.16
2023-01-20T00:38:58.617Z,86.74
2023-01-20T00:41:25.241Z,86.49
2023-01-20T00:43:51.881Z,87.01
2023-01-20T00:46:18.751Z,87.55
2023-01-20T00:48:45.432Z,88.21
2023-01-20T00:51:12.771Z,89.12
2023-01-20T00:53:39.614Z,88.47
2023-01-20T00:56:07.170Z,88.56
2023-01-20T00:58:34.096Z,88.04
2023-01-20T01:01:01.443Z,87.85
2023-01-20T01:03:28.672Z,87.71
2023-01-20T01:06:04.954Z,87.76
2023-01-20T01:08:31.566Z,87.42
2023-01-20T01:10:58.225Z,88.28
2023-01-20T01:13:24.871Z,88.12
2023-01-20T01:15:51.555Z,87.01
2023-01-20T01:18:18.251Z,86.55
2023-01-20T01:20:45.095Z,86.32
2023-01-20T01:23:12.627Z,86.16
2023-01-20T01:25:39.370Z,85.84
2023-01-20T01:28:06.029Z,86.12
2023-01-20T01:30:32.876Z,86.32
2023-01-20T01:32:59.530Z,85.64
2023-01-20T01:35:26.146Z,85.43
2023-01-20T01:37:52.791Z,86.12
2023-01-20T01:40:19.493Z,85.69
2023-01-20T01:42:46.107Z,85.48
2023-01-20T01:45:24.823Z,85.79
2023-01-20T01:48:09.924Z,86.40
2023-01-20T01:50:58.621Z,86.39
2023-01-20T01:53:27.563Z,86.74
2023-01-20T01:55:58.623Z,86.83
2023-01-20T01:58:30.783Z,87.09
2023-01-20T02:00:57.489Z,86.96
2023-01-20T02:03:27.188Z,87.15
2023-01-20T02:05:55.037Z,87.21
2023-01-20T02:08:21.809Z,86.98
2023-01-20T02:10:48.450Z,86.82
2023-01-20T02:13:15.210Z,87.92
2023-01-20T02:15:52.582Z,87.86
2023-01-20T02:19:20.643Z,86.73
2023-01-20T02:22:30.321Z,86.93
2023-01-20T02:26:04.370Z,86.99
2023-01-20T02:29:02.485Z,86.87
2023-01-20T03:00:40.335Z,86.09
2023-01-20T03:03:11.909Z,86.14
2023-01-20T03:05:45.852Z,86.52
2023-01-20T03:08:16.093Z,87.36
2023-01-20T03:10:43.078Z,87.84
2023-01-20T03:13:22.236Z,88.75
2023-01-20T03:16:17.585Z,90.50
2023-01-20T03:18:44.893Z,90.33
2023-01-20T03:21:13.117Z,89.26
2023-01-20T03:23:45.438Z,89.99
2023-01-20T03:26:14.605Z,89.35
2023-01-20T03:28:45.734Z,89.08
2023-01-20T03:31:40.993Z,88.92
2023-01-20T03:34:17.119Z,88.96
2023-01-20T03:36:45.806Z,88.60
2023-01-20T03:39:13.017Z,88.34
2023-01-20T03:42:21.327Z,89.11
2023-01-20T03:45:24.414Z,89.96
2023-01-20T03:47:59.194Z,89.40
2023-01-20T03:50:39.766Z,89.21
2023-01-20T03:53:31.961Z,89.02
2023-01-20T03:56:12.537Z,89.45
2023-01-20T03:58:43.586Z,89.09
2023-01-20T04:01:17.814Z,88.89
2023-01-20T04:03:47.592Z,88.08
2023-01-20T04:06:16.337Z,88.03
2023-01-20T04:08:48.232Z,88.17
2023-01-20T04:11:15.012Z,88.95
2023-01-20T04:13:41.680Z,89.96
2023-01-20T04:16:17.563Z,90.25
2023-01-20T04:18:48.797Z,90.24
2023-01-20T04:21:28.588Z,89.01
2023-01-20T04:24:07.693Z,88.79
2023-01-20T04:26:34.376Z,88.54
2023-01-20T04:29:09.783Z,88.90
2023-01-20T04:31:38.241Z,89.54
2023-01-20T04:34:05.431Z,90.25
2023-01-20T04:36:32.102Z,89.86
2023-01-20T04:38:58.798Z,89.91
2023-01-20T04:41:25.481Z,90.19
2023-01-20T04:43:52.126Z,90.99
2023-01-20T04:46:19.046Z,90.93
2023-01-20T04:48:46.330Z,91.88
2023-01-20T04:51:13.760Z,91.05
2023-01-20T04:53:40.944Z,90.07
2023-01-20T04:56:15.287Z,88.92
2023-01-20T04:58:42.721Z,88.46
2023-01-20T05:01:09.691Z,89.49
2023-01-20T05:03:37.131Z,90.45
2023-01-20T05:06:04.041Z,89.89
2023-01-20T05:08:30.674Z,89.95
2023-01-20T05:10:57.350Z,89.95
2023-01-20T05:13:24.050Z,89.02
2023-01-20T05:15:50.652Z,88.67
2023-01-20T05:18:17.271Z,87.62
2023-01-20T05:20:48.534Z,87.41
2023-01-20T05:23:16.399Z,87.85
2023-01-20T05:25:43.240Z,87.36
2023-01-20T05:28:09.970Z,87.33
2023-01-20T05:30:36.645Z,87.59
2023-01-20T05:33:03.300Z,87.20
2023-01-20T05:35:29.970Z,87.36
2023-01-20T05:37:57.116Z,87.73
2023-01-20T05:40:23.816Z,87.81
2023-01-20T05:42:50.522Z,88.73
2023-01-20T05:45:17.479Z,88.70
2023-01-20T05:47:44.289Z,88.91
2023-01-20T05:50:12.137Z,88.83
2023-01-20T05:52:38.860Z,88.96
2023-01-20T05:55:05.950Z,89.15
2023-01-20T05:57:32.604Z,88.76
2023-01-20T05:59:59.252Z,89.04
2023-01-20T06:02:25.960Z,89.25
2023-01-20T06:04:52.620Z,88.78
2023-01-20T06:07:19.239Z,88.53
2023-01-20T06:09:45.899Z,88.08
2023-01-20T06:12:12.683Z,88.43
2023-01-20T06:14:39.327Z,88.60
2023-01-20T06:17:05.896Z,88.09
2023-01-20T06:19:32.511Z,88.14
2023-01-20T06:21:59.215Z,87.99
2023-01-20T06:24:25.852Z,87.67
2023-01-20T06:26:52.719Z,87.00
2023-01-20T06:29:19.502Z,86.90
2023-01-20T06:31:46.821Z,87.43
2023-01-20T06:34:14.129Z,88.00
2023-01-20T06:36:40.830Z,88.57
2023-01-20T06:39:07.461Z,88.54
2023-01-20T06:41:34.339Z,89.69
2023-01-20T06:44:01.095Z,90.31
2023-01-20T06:46:27.801Z,90.29
2023-01-20T06:49:00.418Z,89.30
2023-01-20T06:51:29.782Z,89.61
2023-01-20T06:53:56.908Z,89.51
2023-01-20T06:56:24.054Z,88.80
2023-01-20T06:58:51.212Z,87.80
2023-01-20T07:01:23.131Z,87.64
2023-01-20T07:03:50.200Z,87.19
2023-01-20T07:06:38.550Z,86.88
2023-01-20T07:09:10.552Z,86.26
2023-01-20T07:11:37.331Z,85.44
2023-01-20T07:14:05.467Z,84.98
2023-01-20T07:16:32.809Z,86.11
2023-01-20T07:18:59.825Z,86.64
2023-01-20T07:21:26.801Z,87.65
2023-01-20T07:23:53.916Z,87.92
2023-01-20T07:26:23.140Z,88.66
2023-01-20T07:28:49.936Z,89.05
2023-01-20T07:31:22.565Z,89.49
2023-01-20T07:33:50.437Z,89.77
2023-01-20T07:36:18.069Z,90.77
2023-01-20T07:38:48.663Z,91.01
2023-01-20T07:41:19.778Z,90.93
2023-01-20T07:43:48.717Z,90.95
2023-01-20T07:46:15.377Z,90.91
2023-01-20T07:48:42.459Z,90.59
2023-01-20T07:51:11.511Z,90.90
2023-01-20T07:53:46.673Z,90.62
2023-01-20T07:56:25.162Z,91.69
2023-01-20T07:58:53.668Z,92.52
2023-01-20T08:01:31.394Z,94.05
2023-01-20T08:04:02.683Z,94.80
2023-01-20T08:06:29.852Z,95.19
2023-01-20T08:09:00.595Z,95.54
2023-01-20T08:11:27.376Z,95.23
2023-01-20T08:13:54.247Z,94.17
2023-01-20T08:16:21.188Z,93.30
2023-01-20T08:18:48.014Z,93.95
2023-01-20T08:21:26.119Z,94.10
2023-01-20T08:23:55.434Z,93.68
2023-01-20T08:26:24.607Z,93.16
2023-01-20T08:28:52.129Z,94.54
2023-01-20T08:31:21.690Z,93.43
2023-01-20T08:33:49.000Z,93.46
2023-01-20T08:36:19.256Z,93.42
2023-01-20T08:38:47.413Z,92.72
2023-01-20T08:41:17.666Z,93.01
2023-01-20T08:43:44.599Z,90.70
2023-01-20T08:46:14.074Z,90.36
2023-01-20T08:48:42.521Z,90.12
2023-01-20T08:51:15.898Z,90.92
2023-01-20T08:53:43.179Z,91.83
2023-01-20T08:56:11.209Z,91.59
2023-01-20T08:58:38.127Z,90.53
2023-01-20T09:01:12.714Z,90.47
2023-01-20T09:03:40.107Z,90.87
2023-01-20T09:06:10.827Z,90.36
2023-01-20T09:08:38.303Z,90.39
2023-01-20T09:11:10.518Z,91.16
2023-01-20T09:13:37.763Z,90.99
2023-01-20T09:16:05.029Z,90.78
2023-01-20T09:18:32.613Z,90.79
2023-01-20T09:21:00.090Z,90.77
2023-01-20T09:23:26.852Z,91.63
2023-01-20T09:25:53.666Z,91.67
2023-01-20T09:28:20.352Z,91.35
2023-01-20T09:30:47.032Z,91.80
2023-01-20T09:33:13.850Z,91.22
2023-01-20T09:35:40.652Z,90.92
2023-01-20T09:38:25.953Z,91.22
2023-01-20T09:41:35.919Z,92.00
2023-01-20T09:44:42.333Z,92.13
2023-01-20T09:47:38.741Z,91.78
2023-01-20T09:50:43.976Z,91.85
2023-01-20T09:53:39.495Z,90.18
2023-01-20T09:56:14.116Z,91.24
2023-01-20T09:59:06.967Z,91.20
2023-01-20T10:01:36.665Z,90.81
2023-01-20T10:04:38.274Z,88.81
2023-01-20T10:07:16.575Z,89.09
2023-01-20T10:10:03.260Z,88.75
2023-01-20T10:12:39.090Z,88.58
2023-01-20T10:15:12.497Z,88.02
2023-01-20T10:18:02.427Z,87.66
2023-01-20T10:20:40.694Z,88.44
2023-01-20T10:23:42.949Z,88.49
2023-01-20T10:26:30.319Z,88.99
2023-01-20T10:29:02.293Z,90.48
2023-01-20T10:31:33.468Z,91.57
2023-01-20T10:34:09.000Z,91.39
2023-01-20T10:36:36.136Z,89.71
2023-01-20T10:39:10.945Z,89.41
2023-01-20T10:41:51.673Z,89.39
2023-01-20T10:44:18.419Z,89.99
2023-01-20T10:47:41.231Z,90.49
2023-01-20T10:50:31.843Z,88.83
2023-01-20T10:53:25.051Z,89.59
2023-01-20T10:56:02.210Z,89.64
2023-01-20T10:58:37.925Z,89.47
2023-01-20T11:01:09.286Z,90.38
2023-01-20T11:03:40.773Z,89.41
2023-01-20T11:06:07.608Z,90.10
2023-01-20T11:08:34.229Z,91.27
2023-01-20T11:11:15.020Z,90.14
2023-01-20T11:13:41.617Z,90.04
2023-01-20T11:16:18.943Z,90.07
2023-01-20T11:19:06.200Z,90.59
2023-01-20T11:21:36.663Z,90.08
2023-01-20T11:24:35.565Z,89.74
2023-01-20T11:27:04.892Z,90.90
2023-01-20T11:29:38.457Z,89.86
2023-01-20T11:32:05.261Z,90.98
2023-01-20T11:34:34.907Z,91.04
2023-01-20T11:37:25.543Z,90.78
2023-01-20T11:40:11.980Z,90.74
2023-01-20T11:42:44.976Z,90.77
2023-01-20T11:45:34.748Z,90.37
2023-01-20T11:48:33.628Z,89.24
2023-01-20T11:51:01.611Z,89.60
2023-01-20T11:53:33.253Z,89.66
2023-01-20T11:56:19.898Z,90.01
2023-01-20T11:58:56.071Z,90.41
2023-01-20T12:01:28.489Z,90.08
2023-01-20T12:04:38.050Z,90.77
2023-01-20T12:07:12.571Z,90.62
2023-01-20T12:09:46.831Z,91.08
2023-01-20T12:12:39.972Z,91.46
2023-01-20T12:15:19.451Z,90.68
2023-01-20T12:18:10.500Z,90.87
2023-01-20T12:20:54.782Z,91.09
2023-01-20T12:23:46.191Z,90.49
2023-01-20T12:26:15.009Z,90.69
2023-01-20T12:29:02.377Z,90.77
2023-01-20T12:31:31.262Z,91.19
2023-01-20T12:34:06.922Z,91.25
2023-01-20T12:37:05.656Z,91.33
2023-01-20T12:40:23.354Z,91.69
2023-01-20T12:43:05.958Z,90.77
2023-01-20T12:46:04.851Z,90.02
2023-01-20T12:48:59.875Z,90.79
2023-01-20T12:51:40.824Z,89.52
2023-01-20T12:54:48.989Z,90.38
2023-01-20T12:57:52.017Z,92.34
2023-01-20T13:01:07.561Z,92.46
2023-01-20T13:04:15.746Z,91.17
2023-01-20T13:07:31.012Z,92.98
2023-01-20T13:10:24.303Z,91.75
2023-01-20T13:13:33.347Z,91.46
2023-01-20T13:16:36.142Z,91.31
2023-01-20T13:19:29.531Z,91.85
2023-01-20T13:22:07.899Z,91.94
2023-01-20T13:24:35.559Z,92.27
2023-01-20T13:27:02.949Z,93.94
2023-01-20T13:29:55.205Z,94.24
2023-01-20T13:32:49.131Z,93.20
2023-01-20T13:35:44.434Z,93.07
2023-01-20T13:38:33.161Z,93.93
2023-01-20T13:41:03.503Z,94.20
2023-01-20T13:44:03.560Z,95.01
2023-01-20T13:46:35.948Z,95.30
2023-01-20T13:49:23.247Z,95.37
2023-01-20T13:51:50.429Z,95.07
2023-01-20T13:54:44.717Z,95.98
2023-01-20T13:57:40.595Z,94.22
2023-01-20T14:00:12.980Z,94.32
2023-01-20T14:02:39.861Z,95.15
2023-01-20T14:05:20.321Z,94.73
2023-01-20T14:07:46.946Z,94.21
2023-01-20T14:10:14.281Z,94.71
2023-01-20T14:12:41.690Z,95.44
2023-01-20T14:15:23.480Z,95.33
2023-01-20T14:17:55.210Z,95.92
2023-01-20T14:20:26.516Z,94.81
2023-01-20T14:22:53.205Z,95.11
2023-01-20T14:25:26.159Z,95.17
2023-01-20T14:27:53.052Z,94.89
2023-01-20T14:30:25.746Z,94.10
2023-01-20T14:32:53.380Z,95.14
2023-01-20T14:35:28.957Z,95.06
2023-01-20T14:37:55.737Z,94.95
2023-01-20T14:40:26.235Z,94.94
2023-01-20T14:43:06.260Z,95.22
2023-01-20T14:45:33.627Z,96.13
2023-01-20T14:48:02.849Z,95.75
2023-01-20T14:50:30.020Z,96.69
2023-01-20T14:52:56.695Z,95.78
2023-01-20T14:55:32.146Z,95.61
2023-01-20T14:57:59.231Z,96.62
2023-01-20T15:00:31.665Z,96.93
2023-01-20T15:03:15.829Z,97.11
2023-01-20T15:05:54.941Z,97.37
2023-01-20T15:08:26.351Z,98.01
2023-01-20T15:11:32.600Z,98.05
2023-01-20T15:14:01.714Z,97.70
2023-01-20T15:16:38.788Z,98.40
2023-01-20T15:19:18.392Z,98.84
2023-01-20T15:21:53.385Z,98.50
2023-01-20T15:24:23.048Z,98.78
2023-01-20T15:26:52.620Z,99.07
2023-01-20T15:29:58.548Z,98.55
2023-01-20T15:32:26.312Z,98.39
2023-01-20T15:34:52.899Z,98.60
2023-01-20T15:37:20.113Z,98.76
2023-01-20T15:39:47.582Z,99.03
2023-01-20T15:42:15.357Z,99.61
2023-01-20T15:44:42.040Z,99.51
2023-01-20T15:47:20.611Z,99.12
2023-01-20T15:49:47.726Z,99.60
2023-01-20T15:52:14.364Z,99.44
2023-01-20T15:54:40.992Z,100.00
2023-01-20T15:57:16.841Z,100.00
2023-01-20T15:59:47.618Z,100.00
2023-01-20T16:02:19.629Z,100.00
2023-01-20T16:04:46.414Z,100.00
2023-01-20T16:07:15.768Z,100.00
2023-01-20T16:09:43.454Z,100.00
2023-01-20T16:12:14.755Z,100.00
2023-01-20T16:14:41.888Z,100.00
2023-01-20T16:17:21.200Z,100.00
2023-01-20T16:19:48.918Z,100.00
2023-01-20T16:22:16.327Z,100.00
2023-01-20T16:24:43.212Z,100.00
2023-01-20T16:27:22.068Z,100.00
2023-01-20T16:29:49.383Z,100.00
2023-01-20T16:32:18.189Z,100.00
2023-01-20T16:34:46.390Z,100.00
2023-01-20T16:37:14.449Z,100.00
2023-01-20T16:39:41.172Z,100.00
2023-01-20T16:42:11.562Z,100.00
2023-01-20T16:44:39.003Z,100.00
2023-01-20T16:47:06.617Z,100.00
2023-01-20T16:49:33.240Z,100.00
2023-01-20T16:52:00.109Z,100.00
2023-01-20T16:54:26.693Z,100.00
2023-01-20T16:56:53.302Z,100.00
2023-01-20T16:59:19.938Z,100.00
2023-01-20T17:01:49.778Z,100.00
2023-01-20T17:04:16.744Z,100.00
2023-01-20T17:06:43.409Z,100.00
2023-01-20T17:09:10.061Z,100.00
2023-01-20T17:11:38.759Z,100.00
2023-01-20T17:14:07.193Z,100.00
2023-01-20T17:16:34.404Z,99.62
2023-01-20T17:19:01.768Z,99.14
2023-01-20T17:21:30.545Z,99.56
2023-01-20T17:24:00.391Z,99.66
2023-01-20T17:26:27.210Z,98.87
2023-01-20T17:28:55.852Z,99.71
2023-01-20T17:31:22.954Z,99.71
2023-01-20T17:33:50.586Z,99.44
2023-01-20T17:36:17.566Z,99.54
2023-01-20T17:38:44.816Z,99.65
2023-01-20T17:41:12.974Z,99.71
2023-01-20T17:43:46.473Z,99.13
2023-01-20T17:46:25.133Z,99.75
2023-01-20T17:48:51.711Z,100.00
2023-01-20T17:51:20.998Z,100.00
2023-01-20T17:53:48.443Z,99.69
2023-01-20T17:56:17.461Z,99.38
2023-01-20T17:58:45.765Z,100.00
2023-01-20T18:01:27.482Z,100.00
2023-01-20T18:03:56.527Z,100.00
2023-01-20T18:06:24.394Z,100.00
2023-01-20T18:08:56.435Z,100.00
2023-01-20T18:11:27.082Z,100.00
2023-01-20T18:13:56.119Z,100.00
2023-01-20T18:16:26.462Z,100.00
2023-01-20T18:18:58.379Z,100.00
2023-01-20T18:21:31.072Z,100.00
2023-01-20T18:23:58.687Z,100.00
2023-01-20T18:26:29.570Z,100.00
2023-01-20T18:28:58.522Z,100.00
2023-01-20T18:31:27.055Z,99.99
2023-01-20T18:33:55.825Z,100.00
2023-01-20T18:36:26.055Z,100.00
2023-01-20T18:38:58.696Z,100.00
2023-01-20T18:41:26.856Z,100.00
2023-01-20T18:43:53.763Z,99.92
2023-01-20T18:46:20.736Z,100.00
2023-01-20T18:48:48.984Z,100.00
2023-01-20T18:51:17.844Z,100.00
2023-01-20T18:53:45.748Z,100.00
2023-01-20T18:56:15.240Z,100.00
2023-01-20T18:58:47.026Z,100.00
2023-01-20T19:01:19.803Z,100.00
2023-01-20T19:03:47.632Z,100.00
2023-01-20T19:06:22.656Z,100.00
2023-01-20T19:08:49.824Z,100.00
2023-01-20T19:11:22.775Z,100.00
2023-01-20T19:13:51.702Z,100.00
2023-01-20T19:16:19.999Z,100.00
2023-01-20T19:18:51.965Z,100.00
2023-01-20T19:21:18.737Z,100.00
2023-01-20T19:23:49.902Z,100.00
2023-01-20T19:26:18.718Z,100.00
2023-01-20T19:28:47.027Z,100.00
2023-01-20T19:31:19.287Z,100.00
2023-01-20T19:33:46.312Z,100.00
2023-01-20T19:36:15.901Z,100.00
2023-01-20T19:38:43.030Z,100.00
2023-01-20T19:41:18.916Z,100.00
2023-01-20T19:43:46.222Z,100.00
2023-01-20T19:46:17.572Z,100.00
2023-01-20T19:48:44.721Z,100.00
2023-01-20T19:51:16.053Z,100.00
2023-01-20T19:53:44.235Z,100.00
2023-01-20T19:56:13.615Z,100.00
2023-01-20T19:58:41.757Z,100.00
2023-01-20T20:01:15.345Z,100.00
2023-01-20T20:03:42.568Z,100.00
2023-01-20T20:06:31.572Z,100.00
2023-01-20T20:09:16.391Z,100.00
2023-01-20T20:11:43.417Z,100.00
2023-01-20T20:14:13.996Z,100.00
2023-01-20T20:16:41.138Z,100.00
2023-01-20T20:19:09.908Z,100.00
2023-01-20T20:21:36.583Z,100.00
2023-01-20T20:24:05.375Z,100.00
2023-01-20T20:26:35.330Z,100.00
2023-01-20T20:29:03.561Z,100.00
2023-01-20T20:31:30.403Z,100.00
2023-01-20T20:33:58.978Z,100.00
2023-01-20T20:36:28.294Z,100.00
2023-01-20T20:38:55.746Z,100.00
2023-01-20T20:41:22.521Z,100.00
2023-01-20T20:43:49.140Z,100.00
2023-01-20T20:46:16.499Z,100.00
2023-01-20T20:48:43.313Z,100.00
2023-01-20T20:51:15.946Z,100.00
2023-01-20T20:53:43.591Z,100.00
2023-01-20T20:56:13.415Z,100.00
2023-01-20T20:58:55.568Z,100.00
2023-01-20T21:01:27.770Z,100.00
2023-01-20T21:03:57.471Z,100.00
2023-01-20T21:06:24.158Z,100.00
2023-01-20T21:08:50.818Z,100.00
2023-01-20T21:11:18.491Z,100.00
2023-01-20T21:13:45.166Z,100.00
2023-01-20T21:16:14.922Z,100.00
2023-01-20T21:18:41.768Z,100.00
2023-01-20T21:21:13.375Z,100.00
2023-01-20T21:23:43.261Z,100.00
2023-01-20T21:26:12.745Z,100.00
2023-01-20T21:28:39.959Z,100.00
2023-01-20T21:31:11.418Z,100.00
2023-01-20T21:33:38.939Z,100.00
2023-01-20T21:36:07.298Z,100.00
2023-01-20T21:38:34.052Z,100.00
2023-01-20T21:41:09.947Z,100.00
2023-01-20T21:43:57.125Z,100.00
2023-01-20T21:46:24.638Z,100.00
2023-01-20T21:49:10.015Z,100.00
2023-01-20T21:51:55.641Z,100.00
2023-01-20T21:54:22.359Z,100.00
2023-01-20T21:56:51.161Z,100.00
2023-01-20T21:59:18.140Z,100.00
2023-01-20T22:01:44.810Z,100.00
2023-01-20T22:04:11.454Z,100.00
2023-01-20T22:06:38.076Z,100.00
2023-01-20T22:09:04.930Z,100.00
2023-01-20T22:11:31.565Z,100.00
2023-01-20T22:13:58.432Z,100.00
2023-01-20T22:16:26.050Z,100.00
2023-01-20T22:18:53.841Z,100.00
2023-01-20T22:21:22.152Z,100.00
2023-01-20T22:23:48.952Z,100.00
2023-01-20T22:26:15.586Z,100.00
2023-01-20T22:28:42.735Z,100.00
2023-01-20T22:31:14.815Z,100.00
2023-01-20T22:33:41.464Z,100.00
2023-01-20T22:36:08.614Z,100.00
2023-01-20T22:38:35.280Z,100.00
2023-01-20T22:41:06.689Z,100.00
2023-01-20T22:43:35.070Z,100.00
2023-01-20T22:46:02.923Z,100.00
2023-01-20T22:48:34.009Z,100.00
2023-01-20T22:51:12.209Z,100.00
2023-01-20T22:53:39.535Z,100.00
2023-01-20T22:56:12.422Z,100.00
2023-01-20T22:58:39.372Z,100.00
2023-01-20T23:01:12.707Z,100.00
2023-01-20T23:03:39.548Z,100.00
2023-01-20T23:06:06.449Z,100.00
2023-01-20T23:08:33.120Z,100.00
2023-01-20T23:11:04.481Z,100.00
2023-01-20T23:13:31.279Z,100.00
2023-01-20T23:15:57.915Z,100.00
2023-01-20T23:18:25.096Z,100.00
2023-01-20T23:20:53.396Z,100.00
2023-01-20T23:23:21.666Z,100.00
2023-01-20T23:25:48.396Z,100.00
2023-01-20T23:28:15.382Z,100.00
2023-01-20T23:30:42.428Z,100.00
2023-01-20T23:33:09.962Z,100.00
2023-01-20T23:35:39.052Z,100.00
2023-01-20T23:38:06.890Z,100.00
2023-01-20T23:40:36.181Z,100.00
2023-01-20T23:43:02.933Z,100.00
2023-01-20T23:45:29.651Z,100.00
2023-01-20T23:47:56.338Z,100.00
2023-01-20T23:50:22.996Z,100.00
2023-01-20T23:52:49.619Z,100.00
2023-01-20T23:55:16.344Z,100.00
2023-01-20T23:57:42.987Z,100.00
